Terminal Aerodrome Forecast
Issued by NWS

Home | Current Version | Previous Version | Text Only | Print | Product List | Glossary On
Versions: 1 2 3 4 5 6 7 8 9 10 11 12 13 14 15 16 17 18 19 20
587
FTUS41 KPBZ 112320
TAFBVI
TAF
KBVI 112320Z 1200/1224 29006KT P6SM FEW045 SCT060
     FM120400 23003KT P6SM SCT040
     FM122000 25008KT P6SM BKN020 PROB30 1220/1224 4SM -SHSN BKN010=

USA.gov is the U.S. government's official web portal to all federal, state and local government web resources and services.